sensor_id;sensor_type;location;lat;lon;timestamp;P1;durP1;ratioP1;P2;durP2;ratioP2
17052;SDS011;8643;48.824;11.422;2023-02-27T00:00:09;2.60;;;1.50;;
17052;SDS011;8643;48.824;11.422;2023-02-27T00:02:46;2.97;;;1.30;;
17052;SDS011;8643;48.824;11.422;2023-02-27T00:05:17;3.97;;;1.30;;
17052;SDS011;8643;48.824;11.422;2023-02-27T00:07:49;3.40;;;1.50;;
17052;SDS011;8643;48.824;11.422;2023-02-27T00:10:18;5.77;;;1.43;;
17052;SDS011;8643;48.824;11.422;2023-02-27T00:12:47;2.90;;;1.40;;
17052;SDS011;8643;48.824;11.422;2023-02-27T00:15:16;5.00;;;1.57;;
17052;SDS011;8643;48.824;11.422;2023-02-27T00:17:50;4.87;;;1.70;;
17052;SDS011;8643;48.824;11.422;2023-02-27T00:20:19;4.13;;;1.63;;
17052;SDS011;8643;48.824;11.422;2023-02-27T00:22:49;3.33;;;1.20;;
17052;SDS011;8643;48.824;11.422;2023-02-27T00:25:17;3.57;;;1.33;;
17052;SDS011;8643;48.824;11.422;2023-02-27T00:27:46;1.97;;;1.30;;
17052;SDS011;8643;48.824;11.422;2023-02-27T00:30:14;3.07;;;1.40;;
17052;SDS011;8643;48.824;11.422;2023-02-27T00:32:43;2.27;;;1.17;;
17052;SDS011;8643;48.824;11.422;2023-02-27T00:35:12;3.73;;;1.33;;
17052;SDS011;8643;48.824;11.422;2023-02-27T00:37:40;4.90;;;1.50;;
17052;SDS011;8643;48.824;11.422;2023-02-27T00:40:11;2.63;;;1.53;;
17052;SDS011;8643;48.824;11.422;2023-02-27T00:42:41;4.23;;;1.50;;
17052;SDS011;8643;48.824;11.422;2023-02-27T00:45:11;4.10;;;1.40;;
17052;SDS011;8643;48.824;11.422;2023-02-27T00:47:40;2.63;;;1.50;;
17052;SDS011;8643;48.824;11.422;2023-02-27T00:50:09;2.30;;;1.40;;
17052;SDS011;8643;48.824;11.422;2023-02-27T00:52:40;4.27;;;1.70;;
17052;SDS011;8643;48.824;11.422;2023-02-27T00:55:09;5.40;;;1.80;;
17052;SDS011;8643;48.824;11.422;2023-02-27T00:57:39;2.90;;;1.50;;
17052;SDS011;8643;48.824;11.422;2023-02-27T01:00:08;4.80;;;1.70;;
17052;SDS011;8643;48.824;11.422;2023-02-27T01:02:38;6.30;;;1.80;;
17052;SDS011;8643;48.824;11.422;2023-02-27T01:05:07;2.97;;;1.40;;
17052;SDS011;8643;48.824;11.422;2023-02-27T01:07:36;5.30;;;1.50;;
17052;SDS011;8643;48.824;11.422;2023-02-27T01:10:05;4.30;;;1.50;;
17052;SDS011;8643;48.824;11.422;2023-02-27T01:12:38;7.07;;;1.90;;
17052;SDS011;8643;48.824;11.422;2023-02-27T01:15:07;4.23;;;1.63;;
17052;SDS011;8643;48.824;11.422;2023-02-27T01:17:41;3.80;;;1.80;;
17052;SDS011;8643;48.824;11.422;2023-02-27T01:20:11;4.67;;;1.50;;
17052;SDS011;8643;48.824;11.422;2023-02-27T01:22:40;4.77;;;1.23;;
17052;SDS011;8643;48.824;11.422;2023-02-27T01:25:11;3.47;;;1.53;;
17052;SDS011;8643;48.824;11.422;2023-02-27T01:27:42;3.30;;;1.70;;
17052;SDS011;8643;48.824;11.422;2023-02-27T01:30:11;3.10;;;1.70;;
17052;SDS011;8643;48.824;11.422;2023-02-27T01:32:42;3.97;;;1.70;;
17052;SDS011;8643;48.824;11.422;2023-02-27T01:35:11;3.03;;;1.53;;
17052;SDS011;8643;48.824;11.422;2023-02-27T01:37:40;3.57;;;1.80;;
17052;SDS011;8643;48.824;11.422;2023-02-27T01:40:10;3.53;;;1.97;;
17052;SDS011;8643;48.824;11.422;2023-02-27T01:42:40;2.93;;;1.50;;
17052;SDS011;8643;48.824;11.422;2023-02-27T01:48:05;4.37;;;2.10;;
17052;SDS011;8643;48.824;11.422;2023-02-27T01:50:43;3.10;;;1.57;;
17052;SDS011;8643;48.824;11.422;2023-02-27T01:53:17;3.93;;;2.00;;
17052;SDS011;8643;48.824;11.422;2023-02-27T01:55:51;5.23;;;1.90;;
17052;SDS011;8643;48.824;11.422;2023-02-27T01:58:26;5.37;;;2.10;;
17052;SDS011;8643;48.824;11.422;2023-02-27T02:00:55;4.07;;;2.00;;
17052;SDS011;8643;48.824;11.422;2023-02-27T02:03:26;5.60;;;2.30;;
17052;SDS011;8643;48.824;11.422;2023-02-27T02:06:02;5.43;;;2.43;;
17052;SDS011;8643;48.824;11.422;2023-02-27T02:08:36;3.63;;;2.30;;
17052;SDS011;8643;48.824;11.422;2023-02-27T02:11:09;6.47;;;2.60;;
17052;SDS011;8643;48.824;11.422;2023-02-27T02:13:45;7.80;;;2.43;;
17052;SDS011;8643;48.824;11.422;2023-02-27T02:16:23;6.87;;;2.47;;
17052;SDS011;8643;48.824;11.422;2023-02-27T02:19:14;6.50;;;2.20;;
17052;SDS011;8643;48.824;11.422;2023-02-27T02:26:05;6.53;;;2.20;;
17052;SDS011;8643;48.824;11.422;2023-02-27T02:42:38;4.73;;;2.20;;
17052;SDS011;8643;48.824;11.422;2023-02-27T02:45:16;4.27;;;2.20;;
17052;SDS011;8643;48.824;11.422;2023-02-27T02:48:03;6.07;;;2.27;;
17052;SDS011;8643;48.824;11.422;2023-02-27T02:50:40;6.57;;;2.60;;
17052;SDS011;8643;48.824;11.422;2023-02-27T02:53:20;5.07;;;2.20;;
17052;SDS011;8643;48.824;11.422;2023-02-27T02:56:06;4.93;;;2.10;;
17052;SDS011;8643;48.824;11.422;2023-02-27T02:58:44;7.10;;;2.53;;
17052;SDS011;8643;48.824;11.422;2023-02-27T03:01:25;7.20;;;2.43;;
17052;SDS011;8643;48.824;11.422;2023-02-27T03:04:02;3.60;;;2.10;;
17052;SDS011;8643;48.824;11.422;2023-02-27T03:06:40;5.27;;;2.43;;
17052;SDS011;8643;48.824;11.422;2023-02-27T03:09:18;5.63;;;2.53;;
17052;SDS011;8643;48.824;11.422;2023-02-27T03:11:58;4.37;;;2.40;;
17052;SDS011;8643;48.824;11.422;2023-02-27T03:14:32;4.97;;;2.30;;
17052;SDS011;8643;48.824;11.422;2023-02-27T03:17:13;5.23;;;2.60;;
17052;SDS011;8643;48.824;11.422;2023-02-27T03:19:51;5.63;;;2.67;;
17052;SDS011;8643;48.824;11.422;2023-02-27T03:22:26;4.90;;;2.50;;
17052;SDS011;8643;48.824;11.422;2023-02-27T03:25:01;4.97;;;2.40;;
17052;SDS011;8643;48.824;11.422;2023-02-27T03:27:46;6.53;;;2.33;;
17052;SDS011;8643;48.824;11.422;2023-02-27T03:30:24;8.20;;;2.50;;
17052;SDS011;8643;48.824;11.422;2023-02-27T03:33:00;4.67;;;2.23;;
17052;SDS011;8643;48.824;11.422;2023-02-27T03:35:40;6.47;;;2.30;;
17052;SDS011;8643;48.824;11.422;2023-02-27T03:38:19;4.23;;;2.23;;
17052;SDS011;8643;48.824;11.422;2023-02-27T03:41:02;5.67;;;2.00;;
17052;SDS011;8643;48.824;11.422;2023-02-27T03:43:52;6.93;;;2.50;;
17052;SDS011;8643;48.824;11.422;2023-02-27T03:46:30;3.87;;;2.10;;
17052;SDS011;8643;48.824;11.422;2023-02-27T03:48:59;5.17;;;2.50;;
17052;SDS011;8643;48.824;11.422;2023-02-27T03:51:28;4.97;;;2.30;;
17052;SDS011;8643;48.824;11.422;2023-02-27T03:53:59;4.17;;;2.33;;
17052;SDS011;8643;48.824;11.422;2023-02-27T03:56:35;5.40;;;2.60;;
17052;SDS011;8643;48.824;11.422;2023-02-27T03:59:13;6.87;;;2.43;;
17052;SDS011;8643;48.824;11.422;2023-02-27T04:01:47;5.00;;;2.40;;
17052;SDS011;8643;48.824;11.422;2023-02-27T04:04:19;4.90;;;2.47;;
17052;SDS011;8643;48.824;11.422;2023-02-27T04:07:08;4.53;;;2.60;;
17052;SDS011;8643;48.824;11.422;2023-02-27T04:13:21;5.03;;;2.73;;
17052;SDS011;8643;48.824;11.422;2023-02-27T04:16:25;7.40;;;2.90;;
17052;SDS011;8643;48.824;11.422;2023-02-27T04:19:27;4.47;;;2.50;;
17052;SDS011;8643;48.824;11.422;2023-02-27T04:22:19;6.23;;;2.63;;
17052;SDS011;8643;48.824;11.422;2023-02-27T04:25:07;5.50;;;2.50;;
17052;SDS011;8643;48.824;11.422;2023-02-27T04:28:12;5.83;;;2.63;;
17052;SDS011;8643;48.824;11.422;2023-02-27T04:30:47;6.77;;;2.90;;
17052;SDS011;8643;48.824;11.422;2023-02-27T04:33:32;8.13;;;2.70;;
17052;SDS011;8643;48.824;11.422;2023-02-27T04:36:12;5.73;;;2.63;;
17052;SDS011;8643;48.824;11.422;2023-02-27T04:38:56;6.37;;;2.70;;
17052;SDS011;8643;48.824;11.422;2023-02-27T04:41:34;5.30;;;2.40;;
17052;SDS011;8643;48.824;11.422;2023-02-27T04:44:10;4.60;;;2.37;;
17052;SDS011;8643;48.824;11.422;2023-02-27T04:46:42;5.63;;;2.33;;
17052;SDS011;8643;48.824;11.422;2023-02-27T04:49:16;6.97;;;2.47;;
17052;SDS011;8643;48.824;11.422;2023-02-27T04:51:52;6.43;;;2.53;;
17052;SDS011;8643;48.824;11.422;2023-02-27T04:54:28;8.17;;;2.30;;
17052;SDS011;8643;48.824;11.422;2023-02-27T04:57:01;4.00;;;2.20;;
17052;SDS011;8643;48.824;11.422;2023-02-27T04:59:36;8.17;;;2.80;;
17052;SDS011;8643;48.824;11.422;2023-02-27T05:02:13;4.53;;;2.27;;
17052;SDS011;8643;48.824;11.422;2023-02-27T05:04:52;4.83;;;2.63;;
17052;SDS011;8643;48.824;11.422;2023-02-27T05:07:28;3.87;;;2.10;;
17052;SDS011;8643;48.824;11.422;2023-02-27T05:10:02;8.10;;;2.63;;
17052;SDS011;8643;48.824;11.422;2023-02-27T05:12:36;4.20;;;2.30;;
17052;SDS011;8643;48.824;11.422;2023-02-27T05:15:12;5.53;;;2.53;;
17052;SDS011;8643;48.824;11.422;2023-02-27T05:17:48;4.63;;;2.30;;
17052;SDS011;8643;48.824;11.422;2023-02-27T05:20:26;5.23;;;2.93;;
17052;SDS011;8643;48.824;11.422;2023-02-27T05:23:04;3.53;;;2.13;;
17052;SDS011;8643;48.824;11.422;2023-02-27T05:25:43;4.00;;;2.30;;
17052;SDS011;8643;48.824;11.422;2023-02-27T05:28:21;6.43;;;2.17;;
17052;SDS011;8643;48.824;11.422;2023-02-27T05:31:02;4.30;;;2.23;;
17052;SDS011;8643;48.824;11.422;2023-02-27T05:33:37;5.17;;;2.40;;
17052;SDS011;8643;48.824;11.422;2023-02-27T05:36:16;6.43;;;3.00;;
17052;SDS011;8643;48.824;11.422;2023-02-27T05:38:52;7.67;;;2.60;;
17052;SDS011;8643;48.824;11.422;2023-02-27T05:41:27;6.87;;;2.77;;
17052;SDS011;8643;48.824;11.422;2023-02-27T05:44:02;5.90;;;2.83;;
17052;SDS011;8643;48.824;11.422;2023-02-27T05:46:37;6.77;;;3.00;;
17052;SDS011;8643;48.824;11.422;2023-02-27T05:49:12;6.63;;;2.70;;
17052;SDS011;8643;48.824;11.422;2023-02-27T05:51:47;6.00;;;2.97;;
17052;SDS011;8643;48.824;11.422;2023-02-27T05:54:21;5.20;;;2.67;;
17052;SDS011;8643;48.824;11.422;2023-02-27T05:57:00;6.30;;;2.80;;
17052;SDS011;8643;48.824;11.422;2023-02-27T05:59:36;5.53;;;2.80;;
17052;SDS011;8643;48.824;11.422;2023-02-27T06:02:09;5.73;;;3.20;;
17052;SDS011;8643;48.824;11.422;2023-02-27T06:04:39;7.43;;;2.67;;
17052;SDS011;8643;48.824;11.422;2023-02-27T06:07:10;7.73;;;2.80;;
17052;SDS011;8643;48.824;11.422;2023-02-27T06:09:40;8.00;;;2.80;;
17052;SDS011;8643;48.824;11.422;2023-02-27T06:12:11;4.93;;;2.60;;
17052;SDS011;8643;48.824;11.422;2023-02-27T06:14:40;7.37;;;2.97;;
17052;SDS011;8643;48.824;11.422;2023-02-27T06:17:08;5.10;;;2.93;;
17052;SDS011;8643;48.824;11.422;2023-02-27T06:19:36;5.73;;;2.80;;
17052;SDS011;8643;48.824;11.422;2023-02-27T06:22:05;5.90;;;2.57;;
17052;SDS011;8643;48.824;11.422;2023-02-27T06:24:35;6.60;;;2.33;;
17052;SDS011;8643;48.824;11.422;2023-02-27T06:27:04;5.40;;;2.97;;
17052;SDS011;8643;48.824;11.422;2023-02-27T06:29:33;4.20;;;2.50;;
17052;SDS011;8643;48.824;11.422;2023-02-27T06:32:01;5.83;;;2.63;;
17052;SDS011;8643;48.824;11.422;2023-02-27T06:34:30;4.83;;;2.60;;
17052;SDS011;8643;48.824;11.422;2023-02-27T06:36:58;5.77;;;2.87;;
17052;SDS011;8643;48.824;11.422;2023-02-27T06:39:29;8.03;;;2.70;;
17052;SDS011;8643;48.824;11.422;2023-02-27T06:41:59;5.17;;;2.63;;
17052;SDS011;8643;48.824;11.422;2023-02-27T06:44:28;8.60;;;2.77;;
17052;SDS011;8643;48.824;11.422;2023-02-27T06:46:56;5.90;;;3.00;;
17052;SDS011;8643;48.824;11.422;2023-02-27T06:49:25;4.83;;;2.43;;
17052;SDS011;8643;48.824;11.422;2023-02-27T06:51:53;4.97;;;2.60;;
17052;SDS011;8643;48.824;11.422;2023-02-27T06:54:21;5.27;;;2.67;;
17052;SDS011;8643;48.824;11.422;2023-02-27T06:56:50;8.37;;;2.40;;
17052;SDS011;8643;48.824;11.422;2023-02-27T06:59:19;5.07;;;2.50;;
17052;SDS011;8643;48.824;11.422;2023-02-27T07:01:48;4.90;;;2.20;;
17052;SDS011;8643;48.824;11.422;2023-02-27T07:04:16;7.97;;;2.60;;
17052;SDS011;8643;48.824;11.422;2023-02-27T07:06:45;6.50;;;2.47;;
17052;SDS011;8643;48.824;11.422;2023-02-27T07:09:33;6.00;;;2.50;;
17052;SDS011;8643;48.824;11.422;2023-02-27T07:12:03;5.87;;;2.47;;
17052;SDS011;8643;48.824;11.422;2023-02-27T07:14:34;5.50;;;2.37;;
17052;SDS011;8643;48.824;11.422;2023-02-27T07:17:03;5.63;;;2.70;;
17052;SDS011;8643;48.824;11.422;2023-02-27T07:19:32;5.27;;;2.33;;
17052;SDS011;8643;48.824;11.422;2023-02-27T07:22:01;6.27;;;2.67;;
17052;SDS011;8643;48.824;11.422;2023-02-27T07:24:30;5.00;;;2.63;;
17052;SDS011;8643;48.824;11.422;2023-02-27T07:26:58;6.70;;;2.27;;
17052;SDS011;8643;48.824;11.422;2023-02-27T07:29:27;6.10;;;2.47;;
17052;SDS011;8643;48.824;11.422;2023-02-27T07:31:57;5.27;;;2.67;;
17052;SDS011;8643;48.824;11.422;2023-02-27T07:34:26;5.30;;;2.53;;
17052;SDS011;8643;48.824;11.422;2023-02-27T07:36:55;4.53;;;2.40;;
17052;SDS011;8643;48.824;11.422;2023-02-27T07:39:24;4.93;;;2.33;;
17052;SDS011;8643;48.824;11.422;2023-02-27T07:41:52;5.37;;;2.47;;
17052;SDS011;8643;48.824;11.422;2023-02-27T07:44:21;4.70;;;2.40;;
17052;SDS011;8643;48.824;11.422;2023-02-27T07:46:49;4.53;;;2.30;;
17052;SDS011;8643;48.824;11.422;2023-02-27T07:49:19;5.17;;;2.47;;
17052;SDS011;8643;48.824;11.422;2023-02-27T07:51:48;5.47;;;2.60;;
17052;SDS011;8643;48.824;11.422;2023-02-27T07:54:17;5.60;;;2.57;;
17052;SDS011;8643;48.824;11.422;2023-02-27T07:56:46;3.73;;;2.23;;
17052;SDS011;8643;48.824;11.422;2023-02-27T07:59:14;4.07;;;2.33;;
17052;SDS011;8643;48.824;11.422;2023-02-27T08:01:42;4.23;;;2.43;;
17052;SDS011;8643;48.824;11.422;2023-02-27T08:04:11;5.27;;;2.17;;
17052;SDS011;8643;48.824;11.422;2023-02-27T08:06:41;5.03;;;2.30;;
17052;SDS011;8643;48.824;11.422;2023-02-27T08:09:09;6.17;;;2.40;;
17052;SDS011;8643;48.824;11.422;2023-02-27T08:11:37;3.63;;;2.30;;
17052;SDS011;8643;48.824;11.422;2023-02-27T08:14:06;5.13;;;2.30;;
17052;SDS011;8643;48.824;11.422;2023-02-27T08:16:35;5.73;;;2.63;;
17052;SDS011;8643;48.824;11.422;2023-02-27T08:19:03;3.53;;;2.00;;
17052;SDS011;8643;48.824;11.422;2023-02-27T08:21:32;5.20;;;2.77;;
17052;SDS011;8643;48.824;11.422;2023-02-27T08:24:01;5.17;;;2.23;;
17052;SDS011;8643;48.824;11.422;2023-02-27T08:26:30;3.70;;;2.10;;
17052;SDS011;8643;48.824;11.422;2023-02-27T08:28:59;3.80;;;2.20;;
17052;SDS011;8643;48.824;11.422;2023-02-27T08:31:27;4.93;;;2.60;;
17052;SDS011;8643;48.824;11.422;2023-02-27T08:33:56;6.53;;;2.47;;
17052;SDS011;8643;48.824;11.422;2023-02-27T08:36:35;3.57;;;2.33;;
17052;SDS011;8643;48.824;11.422;2023-02-27T08:39:05;4.93;;;2.27;;
17052;SDS011;8643;48.824;11.422;2023-02-27T08:41:35;8.03;;;2.40;;
17052;SDS011;8643;48.824;11.422;2023-02-27T08:44:04;4.33;;;2.30;;
17052;SDS011;8643;48.824;11.422;2023-02-27T08:46:32;5.67;;;2.57;;
17052;SDS011;8643;48.824;11.422;2023-02-27T08:49:01;4.93;;;2.50;;
17052;SDS011;8643;48.824;11.422;2023-02-27T08:51:29;4.47;;;2.30;;
17052;SDS011;8643;48.824;11.422;2023-02-27T08:53:58;3.80;;;2.30;;
17052;SDS011;8643;48.824;11.422;2023-02-27T08:56:28;6.70;;;2.83;;
17052;SDS011;8643;48.824;11.422;2023-02-27T08:58:59;3.40;;;1.97;;
17052;SDS011;8643;48.824;11.422;2023-02-27T09:01:28;4.23;;;2.00;;
17052;SDS011;8643;48.824;11.422;2023-02-27T09:04:00;4.37;;;2.00;;
17052;SDS011;8643;48.824;11.422;2023-02-27T09:06:29;3.00;;;2.03;;
17052;SDS011;8643;48.824;11.422;2023-02-27T09:08:59;6.37;;;2.33;;
17052;SDS011;8643;48.824;11.422;2023-02-27T09:11:28;4.73;;;1.90;;
17052;SDS011;8643;48.824;11.422;2023-02-27T09:13:57;3.70;;;2.10;;
17052;SDS011;8643;48.824;11.422;2023-02-27T09:16:26;2.73;;;1.97;;
17052;SDS011;8643;48.824;11.422;2023-02-27T09:18:55;3.70;;;2.30;;
17052;SDS011;8643;48.824;11.422;2023-02-27T09:21:24;4.03;;;2.00;;
17052;SDS011;8643;48.824;11.422;2023-02-27T09:23:52;3.97;;;1.90;;
17052;SDS011;8643;48.824;11.422;2023-02-27T09:26:34;3.13;;;1.73;;
17052;SDS011;8643;48.824;11.422;2023-02-27T09:29:11;3.93;;;1.80;;
17052;SDS011;8643;48.824;11.422;2023-02-27T09:31:40;3.67;;;1.60;;
17052;SDS011;8643;48.824;11.422;2023-02-27T09:34:08;4.60;;;1.80;;
17052;SDS011;8643;48.824;11.422;2023-02-27T09:36:37;2.73;;;1.67;;
17052;SDS011;8643;48.824;11.422;2023-02-27T09:39:05;3.03;;;1.60;;
17052;SDS011;8643;48.824;11.422;2023-02-27T09:44:31;3.77;;;1.77;;
17052;SDS011;8643;48.824;11.422;2023-02-27T09:47:14;4.27;;;1.93;;
17052;SDS011;8643;48.824;11.422;2023-02-27T09:49:59;3.53;;;1.90;;
17052;SDS011;8643;48.824;11.422;2023-02-27T09:52:35;3.77;;;2.00;;
17052;SDS011;8643;48.824;11.422;2023-02-27T09:55:04;3.80;;;2.03;;
17052;SDS011;8643;48.824;11.422;2023-02-27T09:57:43;4.53;;;1.80;;
17052;SDS011;8643;48.824;11.422;2023-02-27T10:00:24;4.23;;;2.40;;
17052;SDS011;8643;48.824;11.422;2023-02-27T10:03:11;3.40;;;2.10;;
17052;SDS011;8643;48.824;11.422;2023-02-27T10:06:18;4.57;;;1.87;;
17052;SDS011;8643;48.824;11.422;2023-02-27T10:09:00;3.30;;;1.90;;
17052;SDS011;8643;48.824;11.422;2023-02-27T10:11:48;3.30;;;1.90;;
17052;SDS011;8643;48.824;11.422;2023-02-27T10:14:36;2.97;;;1.93;;
17052;SDS011;8643;48.824;11.422;2023-02-27T10:17:15;4.57;;;2.10;;
17052;SDS011;8643;48.824;11.422;2023-02-27T10:19:50;4.07;;;1.77;;
17052;SDS011;8643;48.824;11.422;2023-02-27T10:22:22;3.20;;;1.97;;
17052;SDS011;8643;48.824;11.422;2023-02-27T10:24:56;3.33;;;2.03;;
17052;SDS011;8643;48.824;11.422;2023-02-27T10:27:47;3.47;;;1.87;;
17052;SDS011;8643;48.824;11.422;2023-02-27T10:30:22;4.17;;;1.90;;
17052;SDS011;8643;48.824;11.422;2023-02-27T10:33:01;3.00;;;1.80;;
17052;SDS011;8643;48.824;11.422;2023-02-27T10:35:37;4.57;;;2.03;;
17052;SDS011;8643;48.824;11.422;2023-02-27T10:38:10;2.73;;;2.00;;
17052;SDS011;8643;48.824;11.422;2023-02-27T10:40:46;4.03;;;2.10;;
17052;SDS011;8643;48.824;11.422;2023-02-27T10:43:16;4.20;;;1.60;;
17052;SDS011;8643;48.824;11.422;2023-02-27T10:45:48;2.87;;;1.80;;
17052;SDS011;8643;48.824;11.422;2023-02-27T10:48:17;4.07;;;1.90;;
17052;SDS011;8643;48.824;11.422;2023-02-27T10:50:48;4.27;;;2.10;;
17052;SDS011;8643;48.824;11.422;2023-02-27T10:53:19;4.60;;;1.83;;
17052;SDS011;8643;48.824;11.422;2023-02-27T10:55:57;5.40;;;2.10;;
17052;SDS011;8643;48.824;11.422;2023-02-27T10:58:29;4.00;;;2.30;;
17052;SDS011;8643;48.824;11.422;2023-02-27T11:01:03;3.57;;;1.90;;
17052;SDS011;8643;48.824;11.422;2023-02-27T11:03:36;6.43;;;2.27;;
17052;SDS011;8643;48.824;11.422;2023-02-27T11:06:08;4.73;;;2.50;;
17052;SDS011;8643;48.824;11.422;2023-02-27T11:08:40;3.73;;;2.10;;
17052;SDS011;8643;48.824;11.422;2023-02-27T11:11:10;4.20;;;2.10;;
17052;SDS011;8643;48.824;11.422;2023-02-27T11:13:39;4.17;;;2.00;;
17052;SDS011;8643;48.824;11.422;2023-02-27T11:16:13;3.73;;;2.10;;
17052;SDS011;8643;48.824;11.422;2023-02-27T11:18:46;5.90;;;2.10;;
17052;SDS011;8643;48.824;11.422;2023-02-27T11:21:18;4.07;;;2.27;;
17052;SDS011;8643;48.824;11.422;2023-02-27T11:23:51;4.03;;;2.00;;
17052;SDS011;8643;48.824;11.422;2023-02-27T11:26:28;3.43;;;1.93;;
17052;SDS011;8643;48.824;11.422;2023-02-27T11:29:04;3.90;;;1.97;;
17052;SDS011;8643;48.824;11.422;2023-02-27T11:31:46;4.20;;;1.80;;
17052;SDS011;8643;48.824;11.422;2023-02-27T11:34:23;4.80;;;2.10;;
17052;SDS011;8643;48.824;11.422;2023-02-27T11:36:57;2.87;;;2.03;;
17052;SDS011;8643;48.824;11.422;2023-02-27T11:39:30;4.97;;;2.47;;
17052;SDS011;8643;48.824;11.422;2023-02-27T11:42:10;3.47;;;2.30;;
17052;SDS011;8643;48.824;11.422;2023-02-27T11:44:52;3.00;;;2.10;;
17052;SDS011;8643;48.824;11.422;2023-02-27T11:47:29;3.83;;;2.10;;
17052;SDS011;8643;48.824;11.422;2023-02-27T11:50:04;3.57;;;2.10;;
17052;SDS011;8643;48.824;11.422;2023-02-27T11:53:11;4.07;;;1.90;;
17052;SDS011;8643;48.824;11.422;2023-02-27T11:56:01;4.73;;;2.30;;
17052;SDS011;8643;48.824;11.422;2023-02-27T11:58:37;2.83;;;1.77;;
17052;SDS011;8643;48.824;11.422;2023-02-27T12:01:15;3.73;;;2.03;;
17052;SDS011;8643;48.824;11.422;2023-02-27T12:03:57;2.73;;;1.90;;
17052;SDS011;8643;48.824;11.422;2023-02-27T12:06:34;3.33;;;2.20;;
17052;SDS011;8643;48.824;11.422;2023-02-27T12:09:13;5.43;;;2.30;;
17052;SDS011;8643;48.824;11.422;2023-02-27T12:12:01;4.93;;;2.40;;
17052;SDS011;8643;48.824;11.422;2023-02-27T12:14:37;3.63;;;2.03;;
17052;SDS011;8643;48.824;11.422;2023-02-27T12:17:17;4.13;;;2.10;;
17052;SDS011;8643;48.824;11.422;2023-02-27T12:20:12;3.03;;;2.00;;
17052;SDS011;8643;48.824;11.422;2023-02-27T12:22:53;3.87;;;2.13;;
17052;SDS011;8643;48.824;11.422;2023-02-27T12:25:36;3.03;;;1.90;;
17052;SDS011;8643;48.824;11.422;2023-02-27T12:28:16;4.10;;;2.03;;
17052;SDS011;8643;48.824;11.422;2023-02-27T12:31:05;4.40;;;2.33;;
17052;SDS011;8643;48.824;11.422;2023-02-27T12:33:56;6.03;;;2.20;;
17052;SDS011;8643;48.824;11.422;2023-02-27T12:36:32;2.97;;;1.70;;
17052;SDS011;8643;48.824;11.422;2023-02-27T12:39:00;4.10;;;2.37;;
17052;SDS011;8643;48.824;11.422;2023-02-27T12:41:33;5.43;;;2.37;;
17052;SDS011;8643;48.824;11.422;2023-02-27T12:44:15;3.00;;;2.03;;
17052;SDS011;8643;48.824;11.422;2023-02-27T12:47:18;5.43;;;2.30;;
17052;SDS011;8643;48.824;11.422;2023-02-27T12:50:04;2.73;;;2.07;;
17052;SDS011;8643;48.824;11.422;2023-02-27T12:52:44;4.20;;;2.17;;
17052;SDS011;8643;48.824;11.422;2023-02-27T12:55:32;3.60;;;1.83;;
17052;SDS011;8643;48.824;11.422;2023-02-27T12:58:14;5.00;;;2.20;;
17052;SDS011;8643;48.824;11.422;2023-02-27T13:00:57;4.77;;;1.90;;
17052;SDS011;8643;48.824;11.422;2023-02-27T13:03:32;4.07;;;2.10;;
17052;SDS011;8643;48.824;11.422;2023-02-27T13:06:13;3.83;;;2.30;;
17052;SDS011;8643;48.824;11.422;2023-02-27T13:11:57;5.67;;;2.50;;
17052;SDS011;8643;48.824;11.422;2023-02-27T13:14:38;5.33;;;2.33;;
17052;SDS011;8643;48.824;11.422;2023-02-27T13:17:16;4.60;;;2.33;;
17052;SDS011;8643;48.824;11.422;2023-02-27T13:19:50;3.80;;;2.00;;
17052;SDS011;8643;48.824;11.422;2023-02-27T13:22:28;4.47;;;2.20;;
17052;SDS011;8643;48.824;11.422;2023-02-27T13:25:11;3.43;;;2.00;;
17052;SDS011;8643;48.824;11.422;2023-02-27T13:27:42;3.80;;;2.10;;
17052;SDS011;8643;48.824;11.422;2023-02-27T13:30:18;3.70;;;2.10;;
17052;SDS011;8643;48.824;11.422;2023-02-27T13:32:54;4.63;;;2.13;;
17052;SDS011;8643;48.824;11.422;2023-02-27T13:35:46;3.33;;;2.27;;
17052;SDS011;8643;48.824;11.422;2023-02-27T13:38:28;3.53;;;2.20;;
17052;SDS011;8643;48.824;11.422;2023-02-27T13:53:17;6.27;;;2.20;;
17052;SDS011;8643;48.824;11.422;2023-02-27T13:55:51;6.23;;;2.33;;
17052;SDS011;8643;48.824;11.422;2023-02-27T13:58:25;7.23;;;2.40;;
17052;SDS011;8643;48.824;11.422;2023-02-27T14:00:55;6.50;;;2.20;;
17052;SDS011;8643;48.824;11.422;2023-02-27T14:03:28;3.67;;;2.20;;
17052;SDS011;8643;48.824;11.422;2023-02-27T14:06:00;3.87;;;2.07;;
17052;SDS011;8643;48.824;11.422;2023-02-27T14:08:35;4.03;;;2.33;;
17052;SDS011;8643;48.824;11.422;2023-02-27T14:11:17;5.37;;;2.30;;
17052;SDS011;8643;48.824;11.422;2023-02-27T14:13:58;5.13;;;2.40;;
17052;SDS011;8643;48.824;11.422;2023-02-27T14:16:51;4.67;;;2.67;;
17052;SDS011;8643;48.824;11.422;2023-02-27T14:22:30;6.67;;;2.17;;
17052;SDS011;8643;48.824;11.422;2023-02-27T14:25:32;4.93;;;2.27;;
17052;SDS011;8643;48.824;11.422;2023-02-27T14:28:11;3.33;;;1.93;;
17052;SDS011;8643;48.824;11.422;2023-02-27T14:30:54;4.23;;;2.23;;
17052;SDS011;8643;48.824;11.422;2023-02-27T14:33:28;3.13;;;2.00;;
17052;SDS011;8643;48.824;11.422;2023-02-27T14:36:08;3.63;;;2.10;;
17052;SDS011;8643;48.824;11.422;2023-02-27T14:38:45;3.90;;;2.13;;
17052;SDS011;8643;48.824;11.422;2023-02-27T14:41:18;5.13;;;1.87;;
17052;SDS011;8643;48.824;11.422;2023-02-27T14:43:59;6.07;;;2.20;;
17052;SDS011;8643;48.824;11.422;2023-02-27T14:46:34;3.47;;;1.97;;
17052;SDS011;8643;48.824;11.422;2023-02-27T14:49:05;3.23;;;1.80;;
17052;SDS011;8643;48.824;11.422;2023-02-27T14:51:46;3.47;;;2.00;;
17052;SDS011;8643;48.824;11.422;2023-02-27T14:54:16;3.37;;;1.80;;
17052;SDS011;8643;48.824;11.422;2023-02-27T14:56:54;3.60;;;2.00;;
17052;SDS011;8643;48.824;11.422;2023-02-27T14:59:25;2.60;;;1.80;;
17052;SDS011;8643;48.824;11.422;2023-02-27T15:01:57;3.37;;;1.70;;
17052;SDS011;8643;48.824;11.422;2023-02-27T15:04:30;3.50;;;1.77;;
17052;SDS011;8643;48.824;11.422;2023-02-27T15:06:59;3.53;;;1.90;;
17052;SDS011;8643;48.824;11.422;2023-02-27T15:09:31;4.13;;;1.97;;
17052;SDS011;8643;48.824;11.422;2023-02-27T15:12:08;3.50;;;2.00;;
17052;SDS011;8643;48.824;11.422;2023-02-27T15:14:45;3.93;;;1.90;;
17052;SDS011;8643;48.824;11.422;2023-02-27T15:17:19;3.83;;;1.77;;
17052;SDS011;8643;48.824;11.422;2023-02-27T15:19:51;4.33;;;1.93;;
17052;SDS011;8643;48.824;11.422;2023-02-27T15:22:24;4.03;;;2.00;;
17052;SDS011;8643;48.824;11.422;2023-02-27T15:25:05;4.80;;;2.20;;
17052;SDS011;8643;48.824;11.422;2023-02-27T15:27:53;3.43;;;1.80;;
17052;SDS011;8643;48.824;11.422;2023-02-27T15:30:23;5.43;;;2.00;;
17052;SDS011;8643;48.824;11.422;2023-02-27T15:32:54;5.27;;;2.20;;
17052;SDS011;8643;48.824;11.422;2023-02-27T15:35:23;3.70;;;1.83;;
17052;SDS011;8643;48.824;11.422;2023-02-27T15:37:59;4.47;;;2.17;;
17052;SDS011;8643;48.824;11.422;2023-02-27T15:40:28;5.93;;;2.03;;
17052;SDS011;8643;48.824;11.422;2023-02-27T15:42:59;3.50;;;2.10;;
17052;SDS011;8643;48.824;11.422;2023-02-27T15:45:32;3.87;;;1.87;;
17052;SDS011;8643;48.824;11.422;2023-02-27T15:48:05;3.17;;;1.90;;
17052;SDS011;8643;48.824;11.422;2023-02-27T15:50:36;5.20;;;1.93;;
17052;SDS011;8643;48.824;11.422;2023-02-27T15:53:10;4.67;;;2.20;;
17052;SDS011;8643;48.824;11.422;2023-02-27T15:55:43;5.60;;;2.07;;
17052;SDS011;8643;48.824;11.422;2023-02-27T15:58:18;4.93;;;1.70;;
17052;SDS011;8643;48.824;11.422;2023-02-27T16:00:53;3.80;;;1.90;;
17052;SDS011;8643;48.824;11.422;2023-02-27T16:03:31;4.93;;;1.90;;
17052;SDS011;8643;48.824;11.422;2023-02-27T16:06:07;4.47;;;1.87;;
17052;SDS011;8643;48.824;11.422;2023-02-27T16:08:38;3.73;;;1.97;;
17052;SDS011;8643;48.824;11.422;2023-02-27T16:11:19;4.83;;;1.80;;
17052;SDS011;8643;48.824;11.422;2023-02-27T16:13:50;4.93;;;2.20;;
17052;SDS011;8643;48.824;11.422;2023-02-27T16:16:29;5.47;;;1.90;;
17052;SDS011;8643;48.824;11.422;2023-02-27T16:19:14;4.40;;;1.80;;